Terminal Aerodrome Forecast
Issued by NWS Burlington, VT

Home | Current Version | Previous Version | Text Only | Print | Product List | Glossary On
Versions: 1 2 3 4 5 6 7 8 9 10 11 12
000
FTUS41 KBTV 072336
TAFBTV
TAF
KBTV 072336Z 0800/0824 17010KT P6SM BKN120
     FM080500 19011KT P6SM -SHRA SCT030 BKN040
     FM080800 28011KT 6SM BR OVC025
     FM081300 34007KT P6SM SCT025 BKN040
     FM081600 35008KT P6SM SCT150=

USA.gov is the U.S. government's official web portal to all federal, state and local government web resources and services.